createdAt,value
2018-08-04T00:01:05.031Z,94851.16
2018-08-04T00:03:33.745Z,94841.68
2018-08-04T00:06:02.381Z,94838.25
2018-08-04T00:08:31.096Z,94842.95
2018-08-04T00:10:59.750Z,94843.75
2018-08-04T00:13:28.514Z,94834.66
2018-08-04T00:15:57.203Z,94833.52
2018-08-04T00:18:25.848Z,94832.48
2018-08-04T00:20:55.131Z,94835.13
2018-08-04T00:23:23.842Z,94826.33
2018-08-04T00:25:52.495Z,94824.77
2018-08-04T00:28:21.158Z,94819.72
2018-08-04T00:30:49.851Z,94822.20
2018-08-04T00:33:18.522Z,94823.45
2018-08-04T00:35:47.140Z,94821.61
2018-08-04T00:38:15.756Z,94819.73
2018-08-04T00:40:44.422Z,94816.86
2018-08-04T00:43:13.067Z,94827.18
2018-08-04T00:45:41.711Z,94831.97
2018-08-04T00:48:10.332Z,94829.41
2018-08-04T00:50:39.085Z,94832.23
2018-08-04T00:53:07.674Z,94827.92
2018-08-04T00:55:36.306Z,94827.86
2018-08-04T00:58:04.914Z,94827.74
2018-08-04T01:00:33.598Z,94831.16
2018-08-04T01:03:02.221Z,94836.89
2018-08-04T01:05:30.871Z,94834.80
2018-08-04T01:07:59.543Z,94833.34
2018-08-04T01:10:28.168Z,94831.21
2018-08-04T01:12:56.764Z,94826.40
2018-08-04T01:15:25.383Z,94833.06
2018-08-04T01:17:54.052Z,94834.84
2018-08-04T01:20:22.670Z,94832.93
2018-08-04T01:22:51.326Z,94830.98
2018-08-04T01:25:19.972Z,94825.78
2018-08-04T01:27:48.599Z,94826.93
2018-08-04T01:30:17.294Z,94826.14
2018-08-04T01:32:45.896Z,94823.93
2018-08-04T01:35:14.462Z,94823.23
2018-08-04T01:37:43.078Z,94823.83
2018-08-04T01:40:11.723Z,94826.03
2018-08-04T01:42:40.354Z,94830.14
2018-08-04T01:45:08.960Z,94833.95
2018-08-04T01:47:37.586Z,94828.55
2018-08-04T01:50:06.576Z,94829.05
2018-08-04T01:52:35.246Z,94829.85
2018-08-04T01:55:03.888Z,94828.69
2018-08-04T01:57:32.511Z,94831.03
2018-08-04T02:00:01.120Z,94829.80
2018-08-04T02:02:29.734Z,94830.67
2018-08-04T02:04:58.423Z,94825.18
2018-08-04T02:07:27.162Z,94828.28
2018-08-04T02:09:55.799Z,94821.92
2018-08-04T02:12:24.487Z,94828.28
2018-08-04T02:14:53.109Z,94828.20
2018-08-04T02:17:21.779Z,94830.12
2018-08-04T02:19:50.440Z,94830.57
2018-08-04T02:22:19.062Z,94832.03
2018-08-04T02:24:47.673Z,94828.88
2018-08-04T02:27:16.334Z,94827.72
2018-08-04T02:29:45.031Z,94830.12
2018-08-04T02:32:13.637Z,94828.43
2018-08-04T02:34:42.252Z,94829.82
2018-08-04T02:37:10.882Z,94833.47
2018-08-04T02:39:39.487Z,94833.40
2018-08-04T02:42:08.154Z,94835.77
2018-08-04T02:44:36.797Z,94833.70
2018-08-04T02:47:05.423Z,94841.22
2018-08-04T02:49:34.056Z,94841.41
2018-08-04T02:52:02.748Z,94841.63
2018-08-04T02:54:31.440Z,94841.09
2018-08-04T02:57:00.073Z,94848.56
2018-08-04T02:59:28.700Z,94846.12
2018-08-04T03:01:57.304Z,94844.86
2018-08-04T03:04:25.933Z,94846.63
2018-08-04T03:06:54.530Z,94843.75
2018-08-04T03:09:23.130Z,94852.35
2018-08-04T03:11:51.765Z,94852.05
2018-08-04T03:14:20.372Z,94848.30
2018-08-04T03:16:48.999Z,94858.00
2018-08-04T03:19:17.675Z,94857.12
2018-08-04T03:21:46.316Z,94864.48
2018-08-04T03:24:14.962Z,94867.28
2018-08-04T03:26:43.627Z,94869.56
2018-08-04T03:29:12.263Z,94868.65
2018-08-04T03:31:40.938Z,94877.47
2018-08-04T03:34:09.529Z,94878.11
2018-08-04T03:36:38.224Z,94879.98
2018-08-04T03:39:09.762Z,94882.69
2018-08-04T03:41:38.472Z,94877.38
2018-08-04T03:44:07.264Z,94889.91
2018-08-04T03:46:36.013Z,94879.70
2018-08-04T03:49:04.667Z,94890.91
2018-08-04T03:51:33.287Z,94898.18
2018-08-04T03:54:02.134Z,94900.29
2018-08-04T03:56:30.735Z,94896.02
2018-08-04T03:58:59.457Z,94898.04
2018-08-04T04:01:28.295Z,94889.79
2018-08-04T04:03:56.953Z,94891.81
2018-08-04T04:06:25.669Z,94897.11
2018-08-04T04:08:54.330Z,94900.34
2018-08-04T04:11:22.948Z,94903.55
2018-08-04T04:13:51.841Z,94896.70
2018-08-04T04:16:20.438Z,94899.36
2018-08-04T04:18:49.131Z,94905.22
2018-08-04T04:21:17.820Z,94906.27
2018-08-04T04:23:46.550Z,94907.41
2018-08-04T04:26:15.203Z,94910.47
2018-08-04T04:28:43.814Z,94908.82
2018-08-04T04:31:12.467Z,94913.45
2018-08-04T04:33:41.087Z,94916.89
2018-08-04T04:36:09.720Z,94920.53
2018-08-04T04:38:38.327Z,94917.75
2018-08-04T04:41:07.291Z,94920.53
2018-08-04T04:43:35.897Z,94920.31
2018-08-04T04:46:05.118Z,94922.23
2018-08-04T04:48:33.798Z,94922.91
2018-08-04T04:51:02.412Z,94928.70
2018-08-04T04:53:31.105Z,94931.03
2018-08-04T04:55:59.775Z,94932.99
2018-08-04T04:58:28.386Z,94942.74
2018-08-04T05:00:56.987Z,94941.87
2018-08-04T05:03:25.666Z,94943.41
2018-08-04T05:05:54.286Z,94948.76
2018-08-04T05:08:22.944Z,94945.03
2018-08-04T05:10:51.549Z,94949.14
2018-08-04T05:13:20.298Z,94947.37
2018-08-04T05:15:48.915Z,94946.98
2018-08-04T05:18:17.559Z,94948.55
2018-08-04T05:20:46.211Z,94954.39
2018-08-04T05:23:14.819Z,94952.20
2018-08-04T05:25:43.571Z,94952.04
2018-08-04T05:28:12.233Z,94944.34
2018-08-04T05:30:40.829Z,94943.26
2018-08-04T05:33:09.450Z,94945.33
2018-08-04T05:35:38.196Z,94943.48
2018-08-04T05:38:06.823Z,94944.52
2018-08-04T05:40:35.529Z,94944.19
2018-08-04T05:43:04.163Z,94942.22
2018-08-04T05:45:32.926Z,94937.63
2018-08-04T05:48:01.571Z,94937.46
2018-08-04T05:50:31.074Z,94930.56
2018-08-04T05:52:59.801Z,94927.73
2018-08-04T05:55:28.505Z,94924.92
2018-08-04T05:57:57.206Z,94927.03
2018-08-04T06:00:25.878Z,94931.41
2018-08-04T06:02:54.491Z,94938.91
2018-08-04T06:05:23.452Z,94929.98
2018-08-04T06:07:52.079Z,94923.58
2018-08-04T06:10:20.759Z,94921.77
2018-08-04T06:12:49.491Z,94930.53
2018-08-04T06:15:18.203Z,94925.89
2018-08-04T06:17:47.405Z,94928.30
2018-08-04T06:20:16.121Z,94923.77
2018-08-04T06:22:44.750Z,94927.60
2018-08-04T06:25:13.434Z,94927.03
2018-08-04T06:27:42.142Z,94925.28
2018-08-04T06:30:11.944Z,94924.41
2018-08-04T06:32:41.306Z,94921.31
2018-08-04T06:35:10.004Z,94917.30
2018-08-04T06:37:38.768Z,94921.05
2018-08-04T06:40:07.949Z,94918.36
2018-08-04T06:42:36.640Z,94912.83
2018-08-04T06:45:06.097Z,94920.81
2018-08-04T06:47:34.846Z,94921.00
2018-08-04T06:50:03.522Z,94920.55
2018-08-04T06:52:32.292Z,94917.13
2018-08-04T06:55:00.963Z,94912.54
2018-08-04T06:59:57.148Z,94912.30
2018-08-04T07:02:25.800Z,94917.86
2018-08-04T07:04:54.438Z,94921.16
2018-08-04T07:07:23.076Z,94915.27
2018-08-04T07:09:51.719Z,94913.29
2018-08-04T07:12:20.369Z,94923.80
2018-08-04T07:14:49.255Z,94913.33
2018-08-04T07:17:17.890Z,94920.73
2018-08-04T07:19:46.560Z,94922.34
2018-08-04T07:22:15.224Z,94913.53
2018-08-04T07:24:43.847Z,94910.85
2018-08-04T07:27:12.471Z,94915.64
2018-08-04T07:29:41.284Z,94910.33
2018-08-04T07:32:09.920Z,94909.48
2018-08-04T07:34:38.586Z,94908.22
2018-08-04T07:37:07.635Z,94902.82
2018-08-04T07:39:36.228Z,94902.28
2018-08-04T07:42:05.079Z,94907.13
2018-08-04T07:44:33.682Z,94897.66
2018-08-04T07:47:02.305Z,94899.57
2018-08-04T07:49:31.072Z,94902.05
2018-08-04T07:51:59.720Z,94903.20
2018-08-04T07:54:28.906Z,94894.81
2018-08-04T07:56:57.527Z,94895.63
2018-08-04T07:59:26.257Z,94896.26
2018-08-04T08:01:54.916Z,94897.22
2018-08-04T08:04:23.547Z,94898.62
2018-08-04T08:06:52.175Z,94889.59
2018-08-04T08:09:20.783Z,94895.50
2018-08-04T08:11:49.454Z,94903.33
2018-08-04T08:14:18.107Z,94898.11
2018-08-04T08:16:46.777Z,94900.87
2018-08-04T08:19:15.522Z,94898.21
2018-08-04T08:21:45.279Z,94894.06
2018-08-04T08:24:14.037Z,94893.52
2018-08-04T08:26:42.632Z,94891.71
2018-08-04T08:29:11.253Z,94894.99
2018-08-04T08:31:39.925Z,94888.66
2018-08-04T08:34:08.623Z,94892.39
2018-08-04T08:36:37.257Z,94884.70
2018-08-04T08:39:07.842Z,94883.36
2018-08-04T08:41:36.642Z,94884.95
2018-08-04T08:44:05.323Z,94878.87
2018-08-04T08:46:34.182Z,94886.00
2018-08-04T08:49:02.836Z,94879.11
2018-08-04T08:51:31.479Z,94881.81
2018-08-04T08:54:00.591Z,94869.67
2018-08-04T08:56:30.763Z,94867.05
2018-08-04T08:58:59.446Z,94868.14
2018-08-04T09:01:28.244Z,94860.72
2018-08-04T09:03:56.975Z,94859.94
2018-08-04T09:06:25.679Z,94856.45
2018-08-04T09:08:54.290Z,94856.72
2018-08-04T09:11:22.980Z,94850.06
2018-08-04T09:13:51.671Z,94848.47
2018-08-04T09:16:20.328Z,94847.13
2018-08-04T09:18:49.795Z,94849.27
2018-08-04T09:21:18.533Z,94849.55
2018-08-04T09:23:47.157Z,94845.25
2018-08-04T09:26:15.810Z,94844.22
2018-08-04T09:28:44.483Z,94847.41
2018-08-04T09:31:13.082Z,94837.52
2018-08-04T09:33:41.695Z,94845.23
2018-08-04T09:36:10.411Z,94835.92
2018-08-04T09:38:39.195Z,94834.34
2018-08-04T09:41:07.864Z,94833.47
2018-08-04T09:43:36.539Z,94839.54
2018-08-04T09:46:06.168Z,94828.06
2018-08-04T09:48:34.901Z,94828.57
2018-08-04T09:51:04.611Z,94834.14
2018-08-04T09:53:33.313Z,94834.16
2018-08-04T09:56:01.963Z,94835.17
2018-08-04T09:58:30.699Z,94833.80
2018-08-04T10:01:04.627Z,94827.64
2018-08-04T10:03:33.255Z,94838.20
2018-08-04T10:06:01.972Z,94830.67
2018-08-04T10:08:30.598Z,94834.16
2018-08-04T10:10:59.298Z,94836.27
2018-08-04T10:13:27.973Z,94836.04
2018-08-04T10:15:56.602Z,94826.46
2018-08-04T10:18:25.232Z,94823.75
2018-08-04T10:20:54.229Z,94819.69
2018-08-04T10:23:22.899Z,94824.82
2018-08-04T10:25:51.562Z,94824.81
2018-08-04T10:28:20.285Z,94821.37
2018-08-04T10:30:49.014Z,94826.33
2018-08-04T10:33:17.703Z,94823.50
2018-08-04T10:35:46.349Z,94817.40
2018-08-04T10:38:15.052Z,94816.78
2018-08-04T10:40:43.799Z,94821.45
2018-08-04T10:43:12.453Z,94825.27
2018-08-04T10:45:41.094Z,94817.97
2018-08-04T10:48:09.779Z,94820.44
2018-08-04T10:50:38.368Z,94827.72
2018-08-04T10:53:07.120Z,94826.47
2018-08-04T10:55:36.006Z,94812.13
2018-08-04T10:58:04.742Z,94807.58
2018-08-04T11:00:33.439Z,94817.32
2018-08-04T11:03:02.076Z,94803.52
2018-08-04T11:05:30.702Z,94815.45
2018-08-04T11:07:59.404Z,94812.33
2018-08-04T11:10:28.101Z,94809.44
2018-08-04T11:12:56.785Z,94809.45
2018-08-04T11:15:25.402Z,94813.64
2018-08-04T11:17:54.081Z,94810.41
2018-08-04T11:20:22.746Z,94809.20
2018-08-04T11:22:51.390Z,94806.03
2018-08-04T11:25:20.002Z,94811.08
2018-08-04T11:27:48.658Z,94801.27
2018-08-04T11:30:17.299Z,94786.16
2018-08-04T11:32:45.911Z,94793.05
2018-08-04T11:35:14.548Z,94794.87
2018-08-04T11:37:43.189Z,94795.96
2018-08-04T11:40:11.851Z,94795.66
2018-08-04T11:42:40.525Z,94796.25
2018-08-04T11:45:09.166Z,94791.30
2018-08-04T11:47:37.838Z,94789.20
2018-08-04T11:50:06.707Z,94787.91
2018-08-04T11:52:35.345Z,94786.93
2018-08-04T11:55:04.039Z,94799.13
2018-08-04T11:57:32.703Z,94797.85
2018-08-04T12:00:01.386Z,94792.30
2018-08-04T12:02:30.082Z,94789.23
2018-08-04T12:04:58.712Z,94787.05
2018-08-04T12:07:27.347Z,94783.42
2018-08-04T12:09:56.054Z,94785.11
2018-08-04T12:12:24.673Z,94793.70
2018-08-04T12:14:53.275Z,94786.67
2018-08-04T12:17:21.922Z,94786.17
2018-08-04T12:19:50.525Z,94783.39
2018-08-04T12:22:19.182Z,94776.65
2018-08-04T12:24:47.822Z,94780.34
2018-08-04T12:27:16.497Z,94775.80
2018-08-04T12:29:45.846Z,94767.28
2018-08-04T12:32:14.471Z,94771.84
2018-08-04T12:34:43.082Z,94769.67
2018-08-04T12:37:11.690Z,94773.70
2018-08-04T12:39:40.410Z,94780.56
2018-08-04T12:42:09.103Z,94775.06
2018-08-04T12:44:37.746Z,94773.95
2018-08-04T12:47:06.349Z,94783.16
2018-08-04T12:49:34.964Z,94769.23
2018-08-04T12:52:03.700Z,94768.26
2018-08-04T12:54:32.420Z,94766.34
2018-08-04T12:57:00.937Z,94771.73
2018-08-04T12:59:29.857Z,94770.09
2018-08-04T13:01:58.551Z,94766.09
2018-08-04T13:04:27.165Z,94768.66
2018-08-04T13:06:55.807Z,94766.95
2018-08-04T13:09:24.448Z,94774.50
2018-08-04T13:11:53.178Z,94774.48
2018-08-04T13:14:21.821Z,94764.56
2018-08-04T13:16:50.475Z,94764.05
2018-08-04T13:19:19.085Z,94765.21
2018-08-04T13:21:47.787Z,94761.45
2018-08-04T13:24:16.488Z,94768.03
2018-08-04T13:26:45.192Z,94757.73
2018-08-04T13:29:14.686Z,94764.37
2018-08-04T13:31:43.371Z,94768.33
2018-08-04T13:34:12.002Z,94754.45
2018-08-04T13:36:40.610Z,94764.11
2018-08-04T13:39:10.357Z,94764.73
2018-08-04T13:41:39.661Z,94768.27
2018-08-04T13:44:08.631Z,94768.90
2018-08-04T13:46:37.355Z,94765.04
2018-08-04T13:49:05.990Z,94769.07
2018-08-04T13:51:34.651Z,94769.78
2018-08-04T13:54:03.443Z,94766.94
2018-08-04T13:56:32.134Z,94771.52
2018-08-04T13:59:00.854Z,94768.86
2018-08-04T14:01:29.602Z,94766.20
2018-08-04T14:03:58.288Z,94769.00
2018-08-04T14:06:26.953Z,94766.18
2018-08-04T14:08:55.628Z,94764.34
2018-08-04T14:11:24.362Z,94766.77
2018-08-04T14:13:53.080Z,94770.66
2018-08-04T14:16:22.226Z,94775.23
2018-08-04T14:18:50.960Z,94769.09
2018-08-04T14:21:20.246Z,94775.70
2018-08-04T14:23:48.895Z,94778.08
2018-08-04T14:26:17.527Z,94767.72
2018-08-04T14:28:46.202Z,94777.55
2018-08-04T14:31:14.792Z,94769.98
2018-08-04T14:33:43.512Z,94767.58
2018-08-04T14:36:12.150Z,94768.73
2018-08-04T14:38:40.747Z,94768.54
2018-08-04T14:41:09.453Z,94766.20
2018-08-04T14:43:38.360Z,94760.34
2018-08-04T14:46:07.419Z,94765.70
2018-08-04T14:48:36.030Z,94759.00
2018-08-04T14:51:04.736Z,94758.12
2018-08-04T14:53:33.338Z,94761.97
2018-08-04T14:56:01.920Z,94760.59
2018-08-04T14:58:30.563Z,94762.03
2018-08-04T15:00:59.252Z,94754.59
2018-08-04T15:03:27.907Z,94759.84
2018-08-04T15:05:56.548Z,94760.73
2018-08-04T15:08:25.119Z,94754.48
2018-08-04T15:10:53.749Z,94756.31
2018-08-04T15:13:22.359Z,94758.28
2018-08-04T15:15:51.039Z,94754.87
2018-08-04T15:18:19.694Z,94762.54
2018-08-04T15:20:48.378Z,94758.20
2018-08-04T15:23:17.005Z,94750.34
2018-08-04T15:25:45.668Z,94757.87
2018-08-04T15:28:14.316Z,94752.80
2018-08-04T15:30:42.971Z,94749.70
2018-08-04T15:33:11.685Z,94748.19
2018-08-04T15:35:40.352Z,94751.97
2018-08-04T15:38:08.986Z,94759.77
2018-08-04T15:40:37.622Z,94754.73
2018-08-04T15:43:06.411Z,94754.27
2018-08-04T15:45:35.052Z,94758.25
2018-08-04T15:48:03.755Z,94755.37
2018-08-04T15:50:32.410Z,94761.22
2018-08-04T15:53:01.077Z,94768.45
2018-08-04T15:55:29.651Z,94769.07
2018-08-04T15:57:58.331Z,94769.42
2018-08-04T16:00:26.972Z,94766.95
2018-08-04T16:02:55.671Z,94766.54
2018-08-04T16:05:24.345Z,94767.00
2018-08-04T16:07:53.154Z,94766.29
2018-08-04T16:10:21.819Z,94763.69
2018-08-04T16:12:50.657Z,94763.29
2018-08-04T16:15:19.284Z,94769.50
2018-08-04T16:17:48.295Z,94767.59
2018-08-04T16:20:17.530Z,94764.91
2018-08-04T16:22:46.283Z,94768.69
2018-08-04T16:25:15.366Z,94766.05
2018-08-04T16:27:44.105Z,94764.93
2018-08-04T16:30:12.763Z,94767.89
2018-08-04T16:32:41.787Z,94764.52
2018-08-04T16:35:10.750Z,94764.45
2018-08-04T16:37:40.234Z,94767.53
2018-08-04T16:40:08.883Z,94765.86
2018-08-04T16:42:37.543Z,94770.66
2018-08-04T16:45:06.295Z,94765.12
2018-08-04T16:47:34.990Z,94776.47
2018-08-04T16:50:03.768Z,94774.72
2018-08-04T16:52:32.450Z,94773.72
2018-08-04T16:55:01.157Z,94773.84
2018-08-04T16:57:29.812Z,94780.86
2018-08-04T16:59:58.523Z,94781.68
2018-08-04T17:02:28.814Z,94785.07
2018-08-04T17:04:58.457Z,94776.34
2018-08-04T17:07:27.266Z,94774.45
2018-08-04T17:09:55.970Z,94778.50
2018-08-04T17:12:24.772Z,94784.81
2018-08-04T17:14:53.382Z,94784.95
2018-08-04T17:17:22.037Z,94785.55
2018-08-04T17:19:50.710Z,94786.59
2018-08-04T17:22:20.449Z,94789.95
2018-08-04T17:24:49.093Z,94784.32
2018-08-04T17:27:17.741Z,94785.56
2018-08-04T17:29:46.538Z,94788.30
2018-08-04T17:32:15.570Z,94785.96
2018-08-04T17:34:44.208Z,94789.70
2018-08-04T17:37:13.009Z,94794.02
2018-08-04T17:39:41.717Z,94793.00
2018-08-04T17:42:10.350Z,94799.41
2018-08-04T17:44:38.966Z,94799.16
2018-08-04T17:47:07.690Z,94805.82
2018-08-04T17:49:36.797Z,94810.63
2018-08-04T17:52:05.894Z,94810.55
2018-08-04T17:54:34.704Z,94820.67
2018-08-04T17:57:03.525Z,94813.47
2018-08-04T17:59:32.131Z,94817.44
2018-08-04T18:02:01.103Z,94820.61
2018-08-04T18:04:29.718Z,94825.38
2018-08-04T18:06:58.560Z,94822.17
2018-08-04T18:09:27.246Z,94825.67
2018-08-04T18:11:56.751Z,94824.15
2018-08-04T18:14:26.432Z,94823.67
2018-08-04T18:16:55.536Z,94828.17
2018-08-04T18:19:24.199Z,94831.12
2018-08-04T18:21:52.931Z,94833.59
2018-08-04T18:24:28.645Z,94841.00
2018-08-04T18:26:57.309Z,94843.66
2018-08-04T18:29:26.180Z,94844.96
2018-08-04T18:31:54.895Z,94846.29
2018-08-04T18:34:23.500Z,94850.62
2018-08-04T18:36:52.181Z,94848.59
2018-08-04T18:39:20.841Z,94857.13
2018-08-04T18:41:49.625Z,94856.52
2018-08-04T18:44:18.208Z,94855.64
2018-08-04T18:46:46.897Z,94859.81
2018-08-04T18:49:15.750Z,94858.47
2018-08-04T18:51:44.440Z,94864.14
2018-08-04T18:54:13.083Z,94862.02
2018-08-04T18:56:41.745Z,94861.20
2018-08-04T18:59:10.366Z,94859.08
2018-08-04T19:01:39.120Z,94868.62
2018-08-04T19:04:07.858Z,94865.47
2018-08-04T19:06:36.541Z,94866.77
2018-08-04T19:09:07.975Z,94862.53
2018-08-04T19:11:36.678Z,94868.41
2018-08-04T19:14:05.414Z,94868.62
2018-08-04T19:16:34.042Z,94863.45
2018-08-04T19:19:02.813Z,94866.14
2018-08-04T19:21:31.828Z,94867.61
2018-08-04T19:24:00.520Z,94856.72
2018-08-04T19:26:29.860Z,94862.13
2018-08-04T19:28:58.888Z,94861.45
2018-08-04T19:31:27.546Z,94861.84
2018-08-04T19:33:56.231Z,94847.05
2018-08-04T19:36:25.058Z,94855.87
2018-08-04T19:38:53.687Z,94852.17
2018-08-04T19:41:22.441Z,94852.90
2018-08-04T19:43:51.222Z,94850.89
2018-08-04T19:46:20.818Z,94850.52
2018-08-04T19:48:49.423Z,94851.81
2018-08-04T19:51:18.027Z,94853.86
2018-08-04T19:53:46.671Z,94851.47
2018-08-04T19:56:15.300Z,94851.39
2018-08-04T19:58:43.914Z,94848.30
2018-08-04T20:01:12.583Z,94846.98
2018-08-04T20:03:41.190Z,94846.98
2018-08-04T20:06:09.860Z,94848.59
2018-08-04T20:08:38.564Z,94849.60
2018-08-04T20:11:07.232Z,94849.49
2018-08-04T20:13:36.019Z,94845.88
2018-08-04T20:16:04.673Z,94846.95
2018-08-04T20:18:33.319Z,94850.06
2018-08-04T20:21:01.961Z,94851.89
2018-08-04T20:23:30.653Z,94852.39
2018-08-04T20:25:59.298Z,94852.97
2018-08-04T20:28:27.900Z,94847.46
2018-08-04T20:30:56.531Z,94848.25
2018-08-04T20:33:25.180Z,94847.63
2018-08-04T20:35:53.871Z,94847.59
2018-08-04T20:38:22.548Z,94844.20
2018-08-04T20:40:51.255Z,94851.98
2018-08-04T20:43:19.935Z,94848.37
2018-08-04T20:45:48.663Z,94853.92
2018-08-04T20:48:17.277Z,94852.72
2018-08-04T20:50:45.953Z,94854.42
2018-08-04T20:53:14.616Z,94857.27
2018-08-04T20:55:43.246Z,94847.14
2018-08-04T20:58:11.964Z,94855.20
2018-08-04T21:00:41.863Z,94851.94
2018-08-04T21:03:12.278Z,94850.67
2018-08-04T21:05:41.107Z,94857.54
2018-08-04T21:08:09.763Z,94850.83
2018-08-04T21:10:38.446Z,94859.38
2018-08-04T21:13:07.070Z,94858.44
2018-08-04T21:15:35.772Z,94860.05
2018-08-04T21:18:04.468Z,94853.89
2018-08-04T21:20:33.123Z,94853.44
2018-08-04T21:23:01.782Z,94854.52
2018-08-04T21:25:30.496Z,94858.48
2018-08-04T21:27:59.147Z,94854.03
2018-08-04T21:30:27.793Z,94854.69
2018-08-04T21:32:56.418Z,94857.83
2018-08-04T21:35:25.170Z,94853.44
2018-08-04T21:37:53.830Z,94860.16
2018-08-04T21:40:22.497Z,94861.45
2018-08-04T21:42:51.116Z,94861.64
2018-08-04T21:45:19.765Z,94858.88
2018-08-04T21:47:48.410Z,94866.17
2018-08-04T21:50:17.026Z,94869.91
2018-08-04T21:52:45.642Z,94867.78
2018-08-04T21:55:14.375Z,94864.74
2018-08-04T21:57:42.990Z,94865.53
2018-08-04T22:00:13.440Z,94865.38
2018-08-04T22:02:56.080Z,94870.70
2018-08-04T22:05:24.979Z,94869.92
2018-08-04T22:08:05.157Z,94866.19
2018-08-04T22:10:33.857Z,94867.17
2018-08-04T22:13:02.771Z,94873.47
2018-08-04T22:15:31.730Z,94874.45
2018-08-04T22:18:00.373Z,94872.78
2018-08-04T22:20:29.522Z,94873.81
2018-08-04T22:22:58.226Z,94880.12
2018-08-04T22:25:28.191Z,94881.05
2018-08-04T22:27:57.265Z,94877.23
2018-08-04T22:30:26.335Z,94883.19
2018-08-04T22:32:55.184Z,94885.44
2018-08-04T22:35:23.941Z,94883.12
2018-08-04T22:37:52.589Z,94875.70
2018-08-04T22:40:22.015Z,94878.05
2018-08-04T22:42:50.689Z,94880.87
2018-08-04T22:45:58.904Z,94878.78
2018-08-04T22:48:27.529Z,94881.55
2018-08-04T22:50:56.279Z,94875.86
2018-08-04T22:53:24.928Z,94875.06
2018-08-04T22:55:53.635Z,94869.96
2018-08-04T22:58:22.234Z,94869.17
2018-08-04T23:00:50.921Z,94868.53
2018-08-04T23:03:19.635Z,94871.60
2018-08-04T23:05:48.331Z,94869.43
2018-08-04T23:08:17.014Z,94870.22
2018-08-04T23:10:46.053Z,94870.33
2018-08-04T23:13:15.309Z,94866.84
2018-08-04T23:15:44.137Z,94862.95
2018-08-04T23:18:12.926Z,94857.00
2018-08-04T23:20:41.720Z,94859.70
2018-08-04T23:23:12.748Z,94856.87
2018-08-04T23:25:41.458Z,94860.17
2018-08-04T23:28:10.434Z,94861.70
2018-08-04T23:30:39.070Z,94862.86
2018-08-04T23:33:07.697Z,94857.45
2018-08-04T23:35:36.347Z,94867.58
2018-08-04T23:38:05.054Z,94859.23
2018-08-04T23:40:33.676Z,94857.28
2018-08-04T23:43:02.449Z,94854.38
2018-08-04T23:45:31.098Z,94852.91
2018-08-04T23:47:59.763Z,94852.18
2018-08-04T23:50:28.417Z,94856.44
2018-08-04T23:52:57.065Z,94843.47
2018-08-04T23:55:25.730Z,94844.86
2018-08-04T23:57:54.330Z,94845.47
